sensor_id;sensor_type;location;lat;lon;timestamp;pressure;altitude;pressure_sealevel;temperature;humidity
52983;BME280;48698;45.736;13.926;2022-09-09T00:07:15;97562.41;;;18.35;100.00
52983;BME280;48698;45.736;13.926;2022-09-09T00:23:27;97399.63;;;17.58;100.00
52983;BME280;48698;45.736;13.926;2022-09-09T00:29:00;97481.59;;;18.16;100.00
52983;BME280;48698;45.736;13.926;2022-09-09T00:34:21;97519.38;;;18.35;100.00
52983;BME280;48698;45.736;13.926;2022-09-09T00:39:48;97487.09;;;18.14;100.00
52983;BME280;48698;45.736;13.926;2022-09-09T00:44:59;97513.53;;;18.30;100.00
52983;BME280;48698;45.736;13.926;2022-09-09T00:50:13;97510.50;;;18.23;100.00
52983;BME280;48698;45.736;13.926;2022-09-09T01:01:11;97399.00;;;17.54;100.00
52983;BME280;48698;45.736;13.926;2022-09-09T01:06:34;97491.81;;;18.22;100.00
52983;BME280;48698;45.736;13.926;2022-09-09T01:17:25;97503.25;;;18.35;100.00
52983;BME280;48698;45.736;13.926;2022-09-09T01:22:53;97461.03;;;17.94;100.00
52983;BME280;48698;45.736;13.926;2022-09-09T01:28:03;97505.59;;;18.28;100.00
52983;BME280;48698;45.736;13.926;2022-09-09T01:33:13;97497.19;;;18.22;100.00
52983;BME280;48698;45.736;13.926;2022-09-09T01:38:17;97501.00;;;18.19;100.00
52983;BME280;48698;45.736;13.926;2022-09-09T01:43:26;97484.66;;;18.11;100.00
52983;BME280;48698;45.736;13.926;2022-09-09T01:48:31;97490.53;;;18.16;100.00
52983;BME280;48698;45.736;13.926;2022-09-09T01:53:34;97439.97;;;17.78;100.00
52983;BME280;48698;45.736;13.926;2022-09-09T01:58:53;97481.84;;;18.13;100.00
52983;BME280;48698;45.736;13.926;2022-09-09T02:04:03;97462.81;;;18.04;100.00
52983;BME280;48698;45.736;13.926;2022-09-09T02:09:17;97439.88;;;18.00;100.00
52983;BME280;48698;45.736;13.926;2022-09-09T02:14:25;97431.34;;;17.95;100.00
52983;BME280;48698;45.736;13.926;2022-09-09T02:19:37;97478.50;;;18.20;100.00
52983;BME280;48698;45.736;13.926;2022-09-09T02:24:43;97453.03;;;18.03;100.00
52983;BME280;48698;45.736;13.926;2022-09-09T02:29:49;97453.72;;;17.96;100.00
52983;BME280;48698;45.736;13.926;2022-09-09T02:34:58;97435.47;;;17.68;100.00
52983;BME280;48698;45.736;13.926;2022-09-09T02:40:04;97287.69;;;16.94;100.00
52983;BME280;48698;45.736;13.926;2022-09-09T02:45:10;97484.28;;;18.16;100.00
52983;BME280;48698;45.736;13.926;2022-09-09T02:50:22;97474.88;;;18.10;100.00
52983;BME280;48698;45.736;13.926;2022-09-09T02:55:43;97456.13;;;17.99;100.00
52983;BME280;48698;45.736;13.926;2022-09-09T03:00:51;97437.13;;;17.80;100.00
52983;BME280;48698;45.736;13.926;2022-09-09T03:05:59;97359.41;;;17.35;100.00
52983;BME280;48698;45.736;13.926;2022-09-09T03:11:07;97332.34;;;17.27;100.00
52983;BME280;48698;45.736;13.926;2022-09-09T03:16:12;97386.81;;;17.61;100.00
52983;BME280;48698;45.736;13.926;2022-09-09T03:21:15;97345.03;;;17.25;100.00
52983;BME280;48698;45.736;13.926;2022-09-09T03:26:19;97342.81;;;17.30;100.00
52983;BME280;48698;45.736;13.926;2022-09-09T03:31:23;97360.31;;;17.56;100.00
52983;BME280;48698;45.736;13.926;2022-09-09T03:36:27;97417.59;;;17.89;100.00
52983;BME280;48698;45.736;13.926;2022-09-09T03:41:31;97423.84;;;17.78;100.00
52983;BME280;48698;45.736;13.926;2022-09-09T03:46:34;97286.09;;;17.03;100.00
52983;BME280;48698;45.736;13.926;2022-09-09T03:51:38;97408.38;;;17.71;100.00
52983;BME280;48698;45.736;13.926;2022-09-09T03:56:52;97362.19;;;17.56;100.00
52983;BME280;48698;45.736;13.926;2022-09-09T04:01:56;97364.88;;;17.56;100.00
52983;BME280;48698;45.736;13.926;2022-09-09T04:07:01;97355.59;;;17.49;100.00
52983;BME280;48698;45.736;13.926;2022-09-09T04:12:04;97358.00;;;17.52;100.00
52983;BME280;48698;45.736;13.926;2022-09-09T04:17:08;97371.94;;;17.46;100.00
52983;BME280;48698;45.736;13.926;2022-09-09T04:22:12;97414.84;;;17.68;100.00
52983;BME280;48698;45.736;13.926;2022-09-09T04:27:15;97368.56;;;17.33;100.00
52983;BME280;48698;45.736;13.926;2022-09-09T04:32:18;97410.84;;;17.51;100.00
52983;BME280;48698;45.736;13.926;2022-09-09T04:37:22;97371.28;;;17.22;100.00
52983;BME280;48698;45.736;13.926;2022-09-09T04:42:26;97388.69;;;17.38;100.00
52983;BME280;48698;45.736;13.926;2022-09-09T04:47:31;97397.09;;;17.56;100.00
52983;BME280;48698;45.736;13.926;2022-09-09T04:52:35;97377.53;;;17.54;100.00
52983;BME280;48698;45.736;13.926;2022-09-09T04:57:39;97349.38;;;17.37;100.00
52983;BME280;48698;45.736;13.926;2022-09-09T05:02:43;97396.81;;;17.48;100.00
52983;BME280;48698;45.736;13.926;2022-09-09T05:07:47;97374.41;;;17.27;100.00
52983;BME280;48698;45.736;13.926;2022-09-09T05:12:54;97404.28;;;17.44;100.00
52983;BME280;48698;45.736;13.926;2022-09-09T05:18:02;97438.06;;;17.69;100.00
52983;BME280;48698;45.736;13.926;2022-09-09T05:23:06;97410.47;;;17.67;100.00
52983;BME280;48698;45.736;13.926;2022-09-09T05:28:10;97422.56;;;17.93;100.00
52983;BME280;48698;45.736;13.926;2022-09-09T05:33:14;97360.78;;;17.73;100.00
52983;BME280;48698;45.736;13.926;2022-09-09T05:38:18;97384.91;;;18.04;100.00
52983;BME280;48698;45.736;13.926;2022-09-09T05:43:23;97383.66;;;18.08;100.00
52983;BME280;48698;45.736;13.926;2022-09-09T05:48:28;97348.97;;;17.85;100.00
52983;BME280;48698;45.736;13.926;2022-09-09T05:53:44;97382.75;;;18.19;100.00
52983;BME280;48698;45.736;13.926;2022-09-09T05:58:49;97402.81;;;18.36;100.00
52983;BME280;48698;45.736;13.926;2022-09-09T06:03:53;97394.41;;;18.50;100.00
52983;BME280;48698;45.736;13.926;2022-09-09T06:08:59;97359.38;;;18.40;100.00
52983;BME280;48698;45.736;13.926;2022-09-09T06:14:03;97340.94;;;18.56;100.00
52983;BME280;48698;45.736;13.926;2022-09-09T06:19:08;97325.13;;;18.63;100.00
52983;BME280;48698;45.736;13.926;2022-09-09T06:24:12;97294.56;;;18.64;100.00
52983;BME280;48698;45.736;13.926;2022-09-09T06:29:24;97325.00;;;19.24;100.00
52983;BME280;48698;45.736;13.926;2022-09-09T06:34:28;97295.41;;;19.24;100.00
52983;BME280;48698;45.736;13.926;2022-09-09T06:39:33;97309.75;;;19.43;100.00
52983;BME280;48698;45.736;13.926;2022-09-09T06:44:49;97343.50;;;19.76;100.00
52983;BME280;48698;45.736;13.926;2022-09-09T06:49:53;97309.72;;;19.34;100.00
52983;BME280;48698;45.736;13.926;2022-09-09T06:54:57;97299.53;;;19.37;100.00
52983;BME280;48698;45.736;13.926;2022-09-09T07:00:03;97357.25;;;19.73;100.00
52983;BME280;48698;45.736;13.926;2022-09-09T07:05:07;97240.88;;;19.41;100.00
52983;BME280;48698;45.736;13.926;2022-09-09T07:10:11;97244.50;;;19.88;100.00
52983;BME280;48698;45.736;13.926;2022-09-09T07:15:16;97235.66;;;20.05;100.00
52983;BME280;48698;45.736;13.926;2022-09-09T07:20:22;97296.19;;;20.67;100.00
52983;BME280;48698;45.736;13.926;2022-09-09T07:25:27;97260.94;;;20.78;100.00
52983;BME280;48698;45.736;13.926;2022-09-09T07:30:33;97332.66;;;21.07;100.00
52983;BME280;48698;45.736;13.926;2022-09-09T07:35:37;97313.34;;;21.02;100.00
52983;BME280;48698;45.736;13.926;2022-09-09T07:40:43;97258.72;;;21.08;100.00
52983;BME280;48698;45.736;13.926;2022-09-09T07:45:57;97320.84;;;21.71;100.00
52983;BME280;48698;45.736;13.926;2022-09-09T07:51:15;97331.56;;;21.45;100.00
52983;BME280;48698;45.736;13.926;2022-09-09T07:56:27;97317.63;;;20.95;100.00
52983;BME280;48698;45.736;13.926;2022-09-09T08:01:35;97327.94;;;20.82;100.00
52983;BME280;48698;45.736;13.926;2022-09-09T08:06:43;97320.06;;;20.71;100.00
52983;BME280;48698;45.736;13.926;2022-09-09T08:11:47;97301.59;;;20.67;100.00
52983;BME280;48698;45.736;13.926;2022-09-09T08:16:51;97254.47;;;20.34;100.00
52983;BME280;48698;45.736;13.926;2022-09-09T08:21:57;97226.31;;;19.99;100.00
52983;BME280;48698;45.736;13.926;2022-09-09T08:27:01;97344.09;;;20.55;100.00
52983;BME280;48698;45.736;13.926;2022-09-09T08:32:05;97279.09;;;20.48;100.00
52983;BME280;48698;45.736;13.926;2022-09-09T08:37:09;97252.75;;;20.33;100.00
52983;BME280;48698;45.736;13.926;2022-09-09T08:47:49;97340.13;;;20.86;100.00
52983;BME280;48698;45.736;13.926;2022-09-09T08:53:09;97288.75;;;20.78;100.00
52983;BME280;48698;45.736;13.926;2022-09-09T08:58:25;97337.63;;;21.92;100.00
52983;BME280;48698;45.736;13.926;2022-09-09T09:09:09;97298.25;;;22.15;100.00
52983;BME280;48698;45.736;13.926;2022-09-09T09:14:25;97311.59;;;21.91;100.00
52983;BME280;48698;45.736;13.926;2022-09-09T09:19:35;97254.94;;;21.01;100.00
52983;BME280;48698;45.736;13.926;2022-09-09T13:28:00;97290.19;;;21.45;100.00
52983;BME280;48698;45.736;13.926;2022-09-09T13:38:14;97190.81;;;21.74;100.00
52983;BME280;48698;45.736;13.926;2022-09-09T13:43:22;97240.34;;;22.26;100.00
52983;BME280;48698;45.736;13.926;2022-09-09T13:48:26;97227.00;;;21.99;100.00
52983;BME280;48698;45.736;13.926;2022-09-09T13:53:35;97201.81;;;21.55;100.00
52983;BME280;48698;45.736;13.926;2022-09-09T13:58:39;97247.72;;;21.73;100.00
52983;BME280;48698;45.736;13.926;2022-09-09T14:03:52;97250.19;;;21.84;100.00
52983;BME280;48698;45.736;13.926;2022-09-09T14:08:56;97158.78;;;21.61;100.00
52983;BME280;48698;45.736;13.926;2022-09-09T14:13:59;97228.03;;;21.80;100.00
52983;BME280;48698;45.736;13.926;2022-09-09T14:19:05;97263.47;;;21.77;100.00
52983;BME280;48698;45.736;13.926;2022-09-09T14:24:08;97231.06;;;21.42;100.00
52983;BME280;48698;45.736;13.926;2022-09-09T14:29:12;97284.88;;;21.08;100.00
52983;BME280;48698;45.736;13.926;2022-09-09T14:34:16;97228.25;;;20.53;100.00
52983;BME280;48698;45.736;13.926;2022-09-09T14:39:21;97243.16;;;21.02;100.00
52983;BME280;48698;45.736;13.926;2022-09-09T14:44:24;97239.97;;;20.89;100.00
52983;BME280;48698;45.736;13.926;2022-09-09T14:49:28;97205.28;;;20.94;100.00
52983;BME280;48698;45.736;13.926;2022-09-09T14:54:32;97236.09;;;21.19;100.00
52983;BME280;48698;45.736;13.926;2022-09-09T14:59:36;97231.03;;;20.89;100.00
52983;BME280;48698;45.736;13.926;2022-09-09T15:04:40;97163.72;;;20.42;100.00
52983;BME280;48698;45.736;13.926;2022-09-09T15:09:45;97216.13;;;20.67;100.00
52983;BME280;48698;45.736;13.926;2022-09-09T15:14:50;97170.63;;;20.18;100.00
52983;BME280;48698;45.736;13.926;2022-09-09T15:19:54;97227.84;;;20.48;100.00
52983;BME280;48698;45.736;13.926;2022-09-09T15:24:58;97225.59;;;20.07;100.00
52983;BME280;48698;45.736;13.926;2022-09-09T15:30:02;97293.97;;;19.96;100.00
52983;BME280;48698;45.736;13.926;2022-09-09T15:35:10;97225.50;;;19.80;100.00
52983;BME280;48698;45.736;13.926;2022-09-09T15:40:14;97157.81;;;19.46;100.00
52983;BME280;48698;45.736;13.926;2022-09-09T15:45:18;97263.84;;;20.30;100.00
52983;BME280;48698;45.736;13.926;2022-09-09T15:50:23;97207.34;;;19.91;100.00
52983;BME280;48698;45.736;13.926;2022-09-09T15:55:26;97241.94;;;19.86;100.00
52983;BME280;48698;45.736;13.926;2022-09-09T16:00:30;97307.13;;;20.19;100.00
52983;BME280;48698;45.736;13.926;2022-09-09T16:05:35;97303.22;;;19.46;100.00
52983;BME280;48698;45.736;13.926;2022-09-09T16:10:38;97321.66;;;19.41;100.00
52983;BME280;48698;45.736;13.926;2022-09-09T16:15:42;97266.03;;;18.82;100.00
52983;BME280;48698;45.736;13.926;2022-09-09T16:20:53;97310.91;;;19.41;100.00
52983;BME280;48698;45.736;13.926;2022-09-09T16:26:11;97263.22;;;19.13;100.00
52983;BME280;48698;45.736;13.926;2022-09-09T16:31:20;97256.72;;;19.15;100.00
52983;BME280;48698;45.736;13.926;2022-09-09T16:36:29;97319.34;;;19.36;100.00
52983;BME280;48698;45.736;13.926;2022-09-09T16:41:38;97297.66;;;19.19;100.00
52983;BME280;48698;45.736;13.926;2022-09-09T16:46:43;97315.22;;;19.23;100.00
52983;BME280;48698;45.736;13.926;2022-09-09T16:51:50;97290.75;;;18.76;100.00
52983;BME280;48698;45.736;13.926;2022-09-09T16:56:56;97285.31;;;19.06;100.00
52983;BME280;48698;45.736;13.926;2022-09-09T17:02:00;97318.00;;;18.92;100.00
52983;BME280;48698;45.736;13.926;2022-09-09T17:07:08;97265.31;;;18.90;100.00
52983;BME280;48698;45.736;13.926;2022-09-09T17:12:14;97264.13;;;18.73;100.00
